Montpelier, Ohio
Current Conditions -  °F | °C
As of 11:53 AM on Saturday 22 Nov 2014 (Local Time) from KDFI Reporting Station
Overcast Overcast  
Wind Chill: 38°   Ceiling: 3200
Heat Index: 44°   Visibility: 9mi
Dew Point: 38°   Wind: 12mph
Humidity: 79%   Direction: 210°SSW
Pressure: 30.08"   Gusts: NA
Location:  41.58°N, 84.61°W
Report Text: KDFI 221653Z AUTO 21010KT 9SM OVC032 07/03 A3008 RMK AO2 RAB04E39 SLP193 P0000 T00670033
Loading
Personal Weather Stations






























Interactive Weather Map New forecast layout! Learn more

10-Day Weather Forecast

Advertisements
Track Severe Weather on mobile